createdAt,value
2019-02-09T00:00:28.552Z,8.45
2019-02-09T00:01:28.541Z,8.36
2019-02-09T00:02:28.527Z,8.33
2019-02-09T00:03:28.527Z,8.24
2019-02-09T00:04:28.528Z,8.13
2019-02-09T00:05:28.492Z,8.13
2019-02-09T00:06:28.485Z,7.98
2019-02-09T00:07:28.473Z,7.94
2019-02-09T00:08:28.461Z,7.85
2019-02-09T00:09:28.464Z,7.80
2019-02-09T00:10:28.453Z,7.87
2019-02-09T00:11:28.429Z,7.73
2019-02-09T00:12:29.763Z,7.72
2019-02-09T00:13:28.407Z,7.67
2019-02-09T00:14:28.395Z,7.63
2019-02-09T00:15:28.417Z,7.56
2019-02-09T00:16:28.371Z,7.53
2019-02-09T00:17:28.357Z,7.51
2019-02-09T00:18:28.368Z,7.40
2019-02-09T00:19:28.340Z,7.51
2019-02-09T00:20:28.328Z,7.42
2019-02-09T00:21:28.354Z,7.40
2019-02-09T00:22:28.306Z,7.36
2019-02-09T00:23:28.296Z,7.36
2019-02-09T00:24:28.285Z,7.35
2019-02-09T00:25:28.268Z,7.15
2019-02-09T00:26:28.261Z,7.14
2019-02-09T00:27:28.268Z,7.21
2019-02-09T00:28:28.236Z,7.18
2019-02-09T00:29:28.228Z,7.11
2019-02-09T00:30:28.215Z,7.17
2019-02-09T00:31:28.203Z,7.20
2019-02-09T00:32:28.209Z,7.18
2019-02-09T00:33:28.189Z,7.17
2019-02-09T00:34:28.194Z,7.17
2019-02-09T00:35:28.160Z,7.11
2019-02-09T00:36:28.148Z,7.28
2019-02-09T00:37:28.143Z,7.13
2019-02-09T00:38:28.137Z,7.17
2019-02-09T00:39:28.128Z,7.18
2019-02-09T00:40:28.101Z,7.13
2019-02-09T00:41:28.096Z,7.14
2019-02-09T00:42:28.085Z,7.21
2019-02-09T00:43:28.088Z,7.14
2019-02-09T00:44:28.059Z,7.15
2019-02-09T00:45:28.059Z,7.17
2019-02-09T00:46:28.040Z,7.23
2019-02-09T00:47:28.032Z,7.31
2019-02-09T00:48:28.035Z,7.33
2019-02-09T00:49:28.012Z,7.32
2019-02-09T00:50:27.996Z,7.29
2019-02-09T00:51:27.984Z,7.29
2019-02-09T00:52:27.972Z,7.24
2019-02-09T00:53:27.963Z,7.23
2019-02-09T00:54:27.964Z,7.21
2019-02-09T00:55:27.945Z,7.21
2019-02-09T00:56:27.927Z,7.24
2019-02-09T00:57:27.925Z,7.17
2019-02-09T00:58:27.906Z,7.15
2019-02-09T00:59:27.896Z,7.21
2019-02-09T01:00:27.901Z,7.20
2019-02-09T01:01:27.874Z,7.14
2019-02-09T01:02:27.868Z,7.20
2019-02-09T01:03:27.852Z,7.20
2019-02-09T01:04:27.844Z,7.17
2019-02-09T01:05:27.847Z,7.15
2019-02-09T01:06:27.837Z,7.13
2019-02-09T01:07:27.804Z,7.13
2019-02-09T01:08:27.796Z,7.14
2019-02-09T01:09:27.785Z,7.13
2019-02-09T01:10:27.769Z,7.11
2019-02-09T01:11:27.756Z,7.11
2019-02-09T01:12:27.764Z,7.11
2019-02-09T01:13:27.736Z,7.14
2019-02-09T01:14:27.737Z,7.06
2019-02-09T01:15:27.714Z,7.17
2019-02-09T01:16:27.716Z,7.05
2019-02-09T01:17:27.692Z,7.05
2019-02-09T01:18:27.696Z,7.13
2019-02-09T01:19:27.668Z,7.02
2019-02-09T01:20:27.680Z,7.10
2019-02-09T01:21:27.648Z,7.00
2019-02-09T01:22:27.656Z,7.03
2019-02-09T01:23:27.624Z,7.02
2019-02-09T01:24:27.612Z,7.02
2019-02-09T01:25:27.600Z,7.07
2019-02-09T01:26:27.600Z,6.96
2019-02-09T01:27:27.581Z,6.99
2019-02-09T01:28:27.586Z,7.07
2019-02-09T01:29:27.556Z,7.02
2019-02-09T01:30:27.548Z,7.00
2019-02-09T01:31:27.540Z,6.96
2019-02-09T01:32:27.564Z,6.97
2019-02-09T01:33:27.516Z,6.95
2019-02-09T01:34:27.515Z,6.95
2019-02-09T01:35:27.488Z,6.96
2019-02-09T01:36:27.483Z,6.97
2019-02-09T01:37:27.467Z,6.99
2019-02-09T01:38:27.468Z,6.93
2019-02-09T01:39:27.443Z,6.89
2019-02-09T01:40:27.454Z,6.88
2019-02-09T01:41:27.424Z,6.84
2019-02-09T01:42:27.412Z,6.95
2019-02-09T01:43:27.404Z,6.85
2019-02-09T01:44:27.399Z,6.93
2019-02-09T01:45:27.409Z,6.79
2019-02-09T01:46:27.372Z,6.95
2019-02-09T01:47:27.371Z,6.89
2019-02-09T01:48:27.369Z,6.89
2019-02-09T01:49:27.333Z,6.87
2019-02-09T01:50:27.339Z,6.84
2019-02-09T01:51:27.353Z,6.87
2019-02-09T01:52:27.300Z,6.85
2019-02-09T01:53:27.289Z,6.84
2019-02-09T01:54:27.296Z,6.89
2019-02-09T01:55:27.276Z,6.81
2019-02-09T01:56:27.260Z,6.85
2019-02-09T01:57:27.264Z,6.79
2019-02-09T01:58:27.240Z,6.82
2019-02-09T01:59:27.249Z,6.75
2019-02-09T02:00:27.217Z,6.85
2019-02-09T02:01:27.204Z,6.84
2019-02-09T02:02:27.192Z,6.85
2019-02-09T02:03:27.192Z,6.75
2019-02-09T02:04:27.168Z,6.75
2019-02-09T02:05:27.170Z,6.81
2019-02-09T02:06:27.158Z,6.81
2019-02-09T02:07:27.136Z,6.81
2019-02-09T02:08:27.129Z,6.81
2019-02-09T02:09:27.121Z,6.85
2019-02-09T02:10:27.104Z,6.79
2019-02-09T02:11:27.100Z,6.82
2019-02-09T02:12:27.076Z,6.81
2019-02-09T02:13:27.080Z,6.92
2019-02-09T02:14:27.062Z,6.81
2019-02-09T02:15:27.057Z,6.93
2019-02-09T02:16:27.033Z,6.89
2019-02-09T02:17:27.031Z,6.87
2019-02-09T02:18:27.031Z,6.88
2019-02-09T02:19:27.000Z,6.96
2019-02-09T02:20:26.990Z,6.96
2019-02-09T02:21:26.992Z,6.95
2019-02-09T02:22:26.971Z,6.84
2019-02-09T02:23:26.971Z,6.85
2019-02-09T02:24:26.943Z,6.78
2019-02-09T02:25:26.952Z,6.75
2019-02-09T02:26:26.924Z,6.87
2019-02-09T02:27:26.922Z,6.85
2019-02-09T02:28:26.906Z,6.75
2019-02-09T02:29:26.888Z,6.72
2019-02-09T02:30:26.881Z,6.72
2019-02-09T02:31:26.892Z,6.69
2019-02-09T02:32:26.865Z,6.66
2019-02-09T02:33:26.854Z,6.67
2019-02-09T02:34:26.833Z,6.62
2019-02-09T02:35:26.843Z,6.62
2019-02-09T02:36:26.811Z,6.62
2019-02-09T02:37:26.829Z,6.63
2019-02-09T02:38:26.788Z,6.69
2019-02-09T02:39:26.792Z,6.74
2019-02-09T02:40:26.770Z,6.57
2019-02-09T02:41:26.840Z,6.64
2019-02-09T02:42:26.750Z,6.64
2019-02-09T02:43:26.757Z,6.64
2019-02-09T02:44:26.726Z,6.67
2019-02-09T02:45:26.724Z,6.64
2019-02-09T02:46:26.702Z,6.59
2019-02-09T02:47:26.702Z,6.67
2019-02-09T02:48:26.778Z,6.67
2019-02-09T02:49:26.680Z,6.59
2019-02-09T02:50:26.660Z,6.69
2019-02-09T02:51:26.670Z,6.64
2019-02-09T02:52:26.631Z,6.67
2019-02-09T02:53:26.621Z,6.59
2019-02-09T02:54:26.617Z,6.60
2019-02-09T02:55:26.625Z,6.63
2019-02-09T02:56:26.588Z,6.69
2019-02-09T02:57:26.589Z,6.66
2019-02-09T02:58:26.563Z,6.63
2019-02-09T02:59:26.575Z,6.69
2019-02-09T03:00:32.517Z,6.70
2019-02-09T03:01:27.547Z,6.75
2019-02-09T03:02:26.521Z,6.77
2019-02-09T03:03:26.530Z,6.78
2019-02-09T03:04:26.504Z,6.75
2019-02-09T03:05:26.508Z,6.72
2019-02-09T03:06:26.486Z,6.81
2019-02-09T03:07:26.467Z,6.70
2019-02-09T03:08:26.451Z,6.81
2019-02-09T03:09:26.465Z,6.70
2019-02-09T03:10:26.436Z,6.75
2019-02-09T03:11:26.431Z,6.85
2019-02-09T03:12:26.409Z,6.88
2019-02-09T03:13:26.395Z,6.87
2019-02-09T03:14:26.391Z,6.96
2019-02-09T03:15:26.383Z,6.84
2019-02-09T03:16:26.387Z,6.96
2019-02-09T03:17:26.355Z,6.92
2019-02-09T03:18:26.348Z,7.00
2019-02-09T03:19:26.333Z,7.02
2019-02-09T03:20:26.324Z,7.05
2019-02-09T03:21:26.321Z,7.03
2019-02-09T03:22:26.315Z,7.00
2019-02-09T03:23:26.287Z,7.05
2019-02-09T03:24:26.288Z,7.05
2019-02-09T03:25:26.273Z,7.05
2019-02-09T03:26:26.255Z,7.10
2019-02-09T03:27:26.299Z,7.10
2019-02-09T03:28:26.251Z,7.02
2019-02-09T03:29:26.219Z,7.02
2019-02-09T03:30:26.223Z,6.97
2019-02-09T03:31:26.199Z,7.00
2019-02-09T03:32:26.188Z,7.00
2019-02-09T03:33:26.194Z,7.00
2019-02-09T03:34:26.191Z,6.99
2019-02-09T03:35:26.165Z,6.99
2019-02-09T03:36:26.140Z,7.07
2019-02-09T03:37:26.141Z,6.97
2019-02-09T03:38:26.124Z,6.97
2019-02-09T03:39:26.121Z,7.00
2019-02-09T03:40:26.117Z,7.06
2019-02-09T03:41:26.083Z,7.13
2019-02-09T03:42:26.095Z,7.03
2019-02-09T03:43:26.063Z,7.10
2019-02-09T03:44:26.054Z,7.11
2019-02-09T03:45:26.057Z,7.05
2019-02-09T03:46:26.045Z,7.14
2019-02-09T03:47:26.020Z,7.06
2019-02-09T03:48:26.010Z,7.11
2019-02-09T03:49:26.003Z,7.03
2019-02-09T03:50:26.020Z,7.02
2019-02-09T03:51:25.985Z,7.10
2019-02-09T03:52:25.976Z,7.10
2019-02-09T03:53:25.952Z,7.11
2019-02-09T03:54:25.945Z,7.07
2019-02-09T03:55:25.938Z,7.03
2019-02-09T03:56:25.923Z,7.05
2019-02-09T03:57:25.945Z,7.10
2019-02-09T03:58:25.901Z,7.03
2019-02-09T03:59:25.887Z,7.11
2019-02-09T04:00:25.875Z,7.13
2019-02-09T04:01:25.865Z,7.13
2019-02-09T04:02:25.852Z,7.20
2019-02-09T04:03:25.863Z,7.13
2019-02-09T04:04:25.836Z,7.14
2019-02-09T04:05:25.831Z,7.13
2019-02-09T04:06:25.813Z,7.21
2019-02-09T04:07:25.804Z,7.18
2019-02-09T04:08:25.784Z,7.18
2019-02-09T04:09:25.799Z,7.17
2019-02-09T04:10:25.854Z,7.24
2019-02-09T04:11:25.754Z,7.14
2019-02-09T04:12:25.740Z,7.13
2019-02-09T04:13:25.754Z,7.07
2019-02-09T04:14:25.726Z,7.10
2019-02-09T04:15:25.734Z,7.06
2019-02-09T04:16:25.700Z,7.02
2019-02-09T04:17:25.703Z,7.03
2019-02-09T04:18:25.682Z,7.05
2019-02-09T04:19:25.663Z,7.14
2019-02-09T04:20:25.668Z,7.00
2019-02-09T04:21:25.640Z,7.18
2019-02-09T04:22:25.632Z,7.23
2019-02-09T04:23:25.636Z,7.21
2019-02-09T04:24:25.621Z,7.18
2019-02-09T04:25:25.602Z,7.17
2019-02-09T04:26:25.587Z,7.18
2019-02-09T04:27:25.586Z,7.18
2019-02-09T04:28:25.579Z,7.21
2019-02-09T04:29:25.560Z,7.33
2019-02-09T04:30:25.543Z,7.35
2019-02-09T04:31:25.535Z,7.29
2019-02-09T04:32:25.531Z,7.29
2019-02-09T04:33:25.521Z,7.29
2019-02-09T04:34:25.515Z,7.32
2019-02-09T04:35:25.498Z,7.35
2019-02-09T04:36:25.478Z,7.39
2019-02-09T04:37:25.477Z,7.31
2019-02-09T04:38:25.468Z,7.36
2019-02-09T04:39:25.460Z,7.50
2019-02-09T04:40:25.444Z,7.43
2019-02-09T04:41:25.421Z,7.50
2019-02-09T04:42:25.437Z,7.50
2019-02-09T04:43:25.401Z,7.54
2019-02-09T04:44:25.397Z,7.56
2019-02-09T04:45:25.405Z,7.56
2019-02-09T04:46:25.374Z,7.51
2019-02-09T04:47:25.357Z,7.50
2019-02-09T04:48:25.355Z,7.53
2019-02-09T04:49:25.385Z,7.45
2019-02-09T04:50:25.320Z,7.54
2019-02-09T04:51:25.336Z,7.45
2019-02-09T04:52:25.297Z,7.50
2019-02-09T04:53:25.289Z,7.51
2019-02-09T04:54:25.323Z,7.54
2019-02-09T04:55:25.284Z,7.56
2019-02-09T04:56:25.254Z,7.54
2019-02-09T04:57:25.270Z,7.60
2019-02-09T04:58:25.234Z,7.61
2019-02-09T04:59:25.217Z,7.66
2019-02-09T05:00:25.211Z,7.63
2019-02-09T05:01:25.200Z,7.63
2019-02-09T05:02:25.184Z,7.67
2019-02-09T05:03:25.283Z,7.58
2019-02-09T05:04:25.165Z,7.63
2019-02-09T05:05:25.153Z,7.57
2019-02-09T05:06:25.141Z,7.56
2019-02-09T05:07:25.130Z,7.54
2019-02-09T05:08:25.118Z,7.58
2019-02-09T05:09:25.136Z,7.50
2019-02-09T05:10:25.099Z,7.51
2019-02-09T05:11:25.087Z,7.53
2019-02-09T05:12:25.079Z,7.50
2019-02-09T05:13:25.063Z,7.50
2019-02-09T05:14:25.071Z,7.48
2019-02-09T05:15:25.055Z,7.50
2019-02-09T05:16:25.028Z,7.43
2019-02-09T05:17:25.019Z,7.56
2019-02-09T05:18:25.007Z,7.60
2019-02-09T05:19:24.999Z,7.54
2019-02-09T05:20:25.382Z,7.54
2019-02-09T05:21:25.035Z,7.54
2019-02-09T05:22:24.963Z,7.56
2019-02-09T05:23:24.951Z,7.57
2019-02-09T05:24:24.947Z,7.56
2019-02-09T05:25:24.932Z,7.56
2019-02-09T05:26:24.928Z,7.58
2019-02-09T05:27:24.920Z,7.50
2019-02-09T05:28:24.900Z,7.48
2019-02-09T05:29:24.887Z,7.47
2019-02-09T05:30:24.877Z,7.35
2019-02-09T05:31:24.911Z,7.36
2019-02-09T05:32:24.853Z,7.32
2019-02-09T05:33:24.860Z,7.35
2019-02-09T05:34:24.827Z,7.50
2019-02-09T05:35:24.815Z,7.33
2019-02-09T05:36:24.811Z,7.33
2019-02-09T05:37:24.811Z,7.43
2019-02-09T05:38:24.783Z,7.33
2019-02-09T05:39:24.794Z,7.43
2019-02-09T05:40:24.776Z,7.43
2019-02-09T05:41:24.753Z,7.50
2019-02-09T05:42:24.738Z,7.48
2019-02-09T05:43:24.746Z,7.45
2019-02-09T05:44:24.715Z,7.45
2019-02-09T05:45:24.718Z,7.45
2019-02-09T05:46:24.695Z,7.48
2019-02-09T05:47:24.683Z,7.35
2019-02-09T05:48:24.715Z,7.38
2019-02-09T05:49:24.675Z,7.28
2019-02-09T05:50:24.654Z,7.32
2019-02-09T05:51:24.639Z,7.35
2019-02-09T05:52:24.662Z,7.36
2019-02-09T05:53:24.620Z,7.32
2019-02-09T05:54:24.607Z,7.33
2019-02-09T05:55:24.614Z,7.32
2019-02-09T05:56:24.586Z,7.29
2019-02-09T05:57:24.574Z,7.14
2019-02-09T05:58:24.574Z,7.20
2019-02-09T05:59:24.551Z,7.18
2019-02-09T06:00:24.543Z,7.23
2019-02-09T06:01:31.845Z,7.11
2019-02-09T06:02:25.517Z,7.13
2019-02-09T06:03:24.515Z,7.07
2019-02-09T06:04:24.541Z,7.11
2019-02-09T06:05:24.516Z,7.07
2019-02-09T06:06:24.474Z,7.07
2019-02-09T06:07:24.459Z,7.10
2019-02-09T06:08:24.454Z,7.14
2019-02-09T06:09:24.442Z,7.11
2019-02-09T06:10:24.440Z,7.11
2019-02-09T06:11:24.437Z,7.02
2019-02-09T06:12:24.406Z,7.10
2019-02-09T06:13:24.402Z,7.11
2019-02-09T06:14:24.399Z,7.03
2019-02-09T06:15:24.386Z,7.10
2019-02-09T06:16:24.382Z,7.17
2019-02-09T06:17:24.351Z,7.17
2019-02-09T06:18:24.351Z,7.17
2019-02-09T06:19:24.331Z,7.10
2019-02-09T06:20:24.329Z,7.14
2019-02-09T06:21:24.318Z,7.20
2019-02-09T06:22:24.311Z,7.18
2019-02-09T06:23:24.283Z,7.20
2019-02-09T06:24:24.285Z,7.23
2019-02-09T06:25:24.275Z,7.20
2019-02-09T06:26:24.258Z,7.23
2019-02-09T06:27:24.245Z,7.18
2019-02-09T06:28:24.237Z,7.29
2019-02-09T06:29:24.218Z,7.29
2019-02-09T06:30:24.248Z,7.36
2019-02-09T06:31:24.194Z,7.35
2019-02-09T06:32:24.183Z,7.38
2019-02-09T06:33:24.171Z,7.32
2019-02-09T06:34:24.162Z,7.15
2019-02-09T06:35:24.158Z,7.33
2019-02-09T06:36:24.164Z,7.35
2019-02-09T06:37:24.127Z,7.31
2019-02-09T06:38:24.124Z,7.39
2019-02-09T06:39:24.110Z,7.48
2019-02-09T06:40:24.096Z,7.51
2019-02-09T06:41:24.106Z,7.39
2019-02-09T06:42:24.097Z,7.48
2019-02-09T06:43:24.063Z,7.51
2019-02-09T06:44:24.053Z,7.53
2019-02-09T06:45:24.042Z,7.63
2019-02-09T06:46:24.031Z,7.61
2019-02-09T06:47:24.041Z,7.53
2019-02-09T06:48:24.013Z,7.51
2019-02-09T06:49:23.995Z,7.51
2019-02-09T06:50:23.986Z,7.48
2019-02-09T06:51:23.974Z,7.54
2019-02-09T06:52:23.965Z,7.53
2019-02-09T06:53:23.981Z,7.50
2019-02-09T06:54:23.945Z,7.54
2019-02-09T06:55:23.929Z,7.57
2019-02-09T06:56:23.914Z,7.58
2019-02-09T06:57:23.922Z,7.58
2019-02-09T06:58:23.894Z,7.61
2019-02-09T06:59:23.899Z,7.70
2019-02-09T07:00:23.882Z,7.69
2019-02-09T07:01:23.861Z,7.72
2019-02-09T07:02:23.856Z,7.77
2019-02-09T07:03:23.842Z,7.79
2019-02-09T07:04:23.829Z,7.73
2019-02-09T07:05:23.833Z,7.75
2019-02-09T07:06:23.821Z,7.77
2019-02-09T07:07:23.798Z,7.72
2019-02-09T07:08:23.791Z,7.73
2019-02-09T07:09:23.794Z,7.69
2019-02-09T07:10:23.770Z,7.60
2019-02-09T07:11:23.779Z,7.63
2019-02-09T07:12:23.776Z,7.63
2019-02-09T07:13:23.726Z,7.61
2019-02-09T07:14:23.747Z,7.61
2019-02-09T07:15:30.760Z,7.61
2019-02-09T07:16:23.699Z,7.58
2019-02-09T07:17:23.706Z,7.58
2019-02-09T07:18:23.689Z,7.69
2019-02-09T07:19:23.658Z,7.66
2019-02-09T07:20:23.654Z,7.61
2019-02-09T07:21:23.649Z,7.66
2019-02-09T07:22:23.627Z,7.70
2019-02-09T07:23:23.634Z,7.69
2019-02-09T07:24:23.620Z,7.75
2019-02-09T07:25:23.595Z,7.69
2019-02-09T07:26:23.585Z,7.70
2019-02-09T07:27:23.573Z,7.80
2019-02-09T07:28:23.569Z,7.80
2019-02-09T07:29:23.583Z,7.82
2019-02-09T07:30:23.543Z,7.85
2019-02-09T07:31:23.546Z,7.88
2019-02-09T07:32:23.523Z,7.83
2019-02-09T07:33:23.610Z,7.82
2019-02-09T07:34:23.494Z,7.88
2019-02-09T07:35:23.502Z,7.90
2019-02-09T07:36:23.471Z,7.76
2019-02-09T07:37:23.462Z,7.95
2019-02-09T07:38:23.451Z,7.85
2019-02-09T07:39:23.439Z,7.87
2019-02-09T07:40:23.437Z,7.85
2019-02-09T07:41:23.446Z,7.88
2019-02-09T07:42:23.406Z,7.82
2019-02-09T07:43:23.394Z,7.85
2019-02-09T07:44:23.386Z,7.87
2019-02-09T07:45:23.372Z,7.73
2019-02-09T07:46:23.384Z,7.87
2019-02-09T07:47:23.356Z,7.80
2019-02-09T07:48:24.105Z,7.82
2019-02-09T07:49:23.336Z,7.88
2019-02-09T07:50:23.316Z,7.80
2019-02-09T07:51:30.368Z,7.82
2019-02-09T07:52:30.370Z,7.90
2019-02-09T07:53:23.280Z,7.90
2019-02-09T07:54:23.277Z,7.79
2019-02-09T07:55:23.266Z,7.72
2019-02-09T07:56:23.248Z,7.80
2019-02-09T07:57:23.256Z,7.73
2019-02-09T07:58:23.233Z,7.69
2019-02-09T07:59:30.288Z,7.73
2019-02-09T08:00:23.211Z,7.69
2019-02-09T08:01:23.193Z,7.70
2019-02-09T08:02:23.184Z,7.67
2019-02-09T08:03:23.193Z,7.70
2019-02-09T08:04:23.164Z,7.70
2019-02-09T08:05:23.152Z,7.75
2019-02-09T08:06:23.152Z,7.85
2019-02-09T08:07:23.128Z,7.80
2019-02-09T08:08:23.116Z,7.80
2019-02-09T08:09:23.128Z,7.70
2019-02-09T08:10:23.121Z,7.72
2019-02-09T08:11:23.084Z,7.75
2019-02-09T08:12:23.076Z,7.88
2019-02-09T08:13:23.064Z,7.82
2019-02-09T08:14:23.052Z,7.80
2019-02-09T08:15:23.040Z,7.80
2019-02-09T08:16:23.040Z,7.85
2019-02-09T08:17:23.020Z,7.80
2019-02-09T08:18:23.008Z,7.83
2019-02-09T08:19:22.996Z,7.73
2019-02-09T08:20:22.987Z,7.80
2019-02-09T08:21:22.969Z,7.80
2019-02-09T08:22:22.972Z,7.82
2019-02-09T08:23:22.959Z,7.80
2019-02-09T08:24:22.940Z,7.79
2019-02-09T08:25:22.924Z,7.69
2019-02-09T08:26:22.928Z,7.76
2019-02-09T08:27:23.710Z,7.75
2019-02-09T08:28:22.911Z,7.79
2019-02-09T08:29:22.886Z,7.61
2019-02-09T08:30:22.876Z,7.72
2019-02-09T08:31:22.863Z,7.66
2019-02-09T08:32:22.860Z,7.69
2019-02-09T08:33:22.841Z,7.67
2019-02-09T08:34:22.840Z,7.70
2019-02-09T08:35:22.816Z,7.73
2019-02-09T08:36:22.820Z,7.75
2019-02-09T08:37:22.796Z,7.82
2019-02-09T08:38:22.783Z,7.73
2019-02-09T08:39:22.783Z,7.77
2019-02-09T08:40:22.760Z,7.88
2019-02-09T08:41:22.772Z,7.76
2019-02-09T08:42:22.740Z,7.87
2019-02-09T08:43:22.728Z,7.87
2019-02-09T08:44:22.724Z,7.94
2019-02-09T08:45:22.707Z,7.83
2019-02-09T08:46:22.696Z,7.95
2019-02-09T08:47:22.703Z,7.95
2019-02-09T08:48:22.672Z,8.01
2019-02-09T08:49:22.665Z,7.94
2019-02-09T08:50:22.655Z,8.01
2019-02-09T08:51:22.636Z,8.05
2019-02-09T08:52:22.641Z,8.00
2019-02-09T08:53:22.628Z,8.01
2019-02-09T08:54:22.604Z,8.01
2019-02-09T08:55:22.595Z,7.97
2019-02-09T08:56:22.592Z,7.97
2019-02-09T08:57:22.568Z,7.95
2019-02-09T08:58:22.568Z,7.93
2019-02-09T08:59:22.572Z,7.88
2019-02-09T09:00:22.540Z,7.88
2019-02-09T09:01:22.528Z,7.95
2019-02-09T09:02:22.544Z,7.91
2019-02-09T09:03:22.505Z,7.83
2019-02-09T09:04:22.499Z,7.93
2019-02-09T09:05:22.497Z,7.90
2019-02-09T09:06:22.473Z,7.93
2019-02-09T09:07:25.220Z,7.93
2019-02-09T09:08:22.451Z,7.88
2019-02-09T09:09:22.440Z,7.98
2019-02-09T09:10:22.448Z,8.03
2019-02-09T09:11:22.416Z,7.95
2019-02-09T09:12:22.404Z,7.95
2019-02-09T09:13:22.403Z,8.08
2019-02-09T09:14:22.380Z,8.09
2019-02-09T09:15:22.372Z,8.03
2019-02-09T09:16:22.375Z,8.10
2019-02-09T09:18:12.201Z,8.16
2019-02-09T09:19:12.199Z,8.27
2019-02-09T09:20:12.179Z,8.26
2019-02-09T09:21:12.163Z,8.19
2019-02-09T09:22:12.176Z,8.28
2019-02-09T09:23:12.145Z,8.15
2019-02-09T09:24:12.156Z,8.31
2019-02-09T09:25:12.119Z,8.31
2019-02-09T09:26:12.141Z,8.31
2019-02-09T09:27:12.139Z,8.28
2019-02-09T09:28:12.104Z,8.31
2019-02-09T09:29:12.076Z,8.34
2019-02-09T09:30:12.075Z,8.37
2019-02-09T09:31:12.058Z,8.31
2019-02-09T09:32:12.043Z,8.46
2019-02-09T09:33:12.083Z,8.44
2019-02-09T09:34:12.032Z,8.46
2019-02-09T09:35:12.011Z,8.42
2019-02-09T09:36:12.000Z,8.45
2019-02-09T09:37:11.987Z,8.51
2019-02-09T09:38:11.979Z,8.49
2019-02-09T09:39:11.983Z,8.55
2019-02-09T09:40:12.015Z,8.48
2019-02-09T09:41:11.943Z,8.46
2019-02-09T09:42:11.935Z,8.48
2019-02-09T09:43:11.921Z,8.52
2019-02-09T09:44:11.915Z,8.66
2019-02-09T09:45:11.914Z,8.73
2019-02-09T09:46:11.885Z,8.78
2019-02-09T09:47:11.878Z,8.69
2019-02-09T09:48:11.957Z,8.76
2019-02-09T09:49:11.858Z,8.74
2019-02-09T09:50:11.846Z,8.82
2019-02-09T09:51:11.857Z,8.81
2019-02-09T09:52:11.821Z,8.88
2019-02-09T09:53:11.806Z,8.87
2019-02-09T09:54:11.796Z,8.92
2019-02-09T09:55:11.914Z,8.88
2019-02-09T09:56:11.789Z,8.92
2019-02-09T09:57:11.777Z,8.97
2019-02-09T09:58:11.753Z,8.94
2019-02-09T09:59:11.764Z,8.92
2019-02-09T10:00:11.741Z,8.92
2019-02-09T10:01:11.721Z,8.88
2019-02-09T10:02:11.737Z,8.95
2019-02-09T10:03:11.698Z,9.06
2019-02-09T10:04:11.685Z,8.92
2019-02-09T10:05:11.677Z,8.91
2019-02-09T10:06:11.662Z,8.91
2019-02-09T10:07:11.713Z,8.95
2019-02-09T10:08:11.653Z,8.94
2019-02-09T10:09:11.645Z,8.87
2019-02-09T10:10:11.617Z,8.87
2019-02-09T10:11:11.605Z,8.89
2019-02-09T10:12:11.596Z,8.85
2019-02-09T10:13:11.644Z,8.87
2019-02-09T10:14:11.585Z,8.85
2019-02-09T10:15:11.561Z,8.87
2019-02-09T10:16:11.553Z,8.84
2019-02-09T10:17:11.541Z,8.85
2019-02-09T10:18:11.529Z,8.99
2019-02-09T10:19:11.557Z,8.88
2019-02-09T10:20:11.509Z,8.94
2019-02-09T10:21:11.493Z,8.85
2019-02-09T10:22:11.489Z,8.92
2019-02-09T10:23:11.473Z,8.89
2019-02-09T10:24:11.481Z,8.99
2019-02-09T10:25:11.461Z,8.94
2019-02-09T10:26:11.438Z,8.94
2019-02-09T10:27:11.429Z,8.91
2019-02-09T10:28:11.418Z,8.94
2019-02-09T10:29:11.405Z,8.95
2019-02-09T10:30:11.411Z,8.94
2019-02-09T10:31:11.397Z,8.99
2019-02-09T10:32:11.374Z,9.11
2019-02-09T10:33:11.361Z,9.10
2019-02-09T10:34:11.349Z,9.16
2019-02-09T10:35:11.345Z,9.25
2019-02-09T10:36:11.341Z,9.23
2019-02-09T10:37:11.352Z,9.28
2019-02-09T10:38:11.305Z,9.26
2019-02-09T10:39:11.293Z,9.18
2019-02-09T10:40:11.281Z,9.22
2019-02-09T10:41:11.274Z,9.26
2019-02-09T10:42:11.277Z,9.21
2019-02-09T10:43:11.261Z,9.22
2019-02-09T10:44:11.238Z,9.21
2019-02-09T10:45:11.226Z,9.28
2019-02-09T10:46:11.217Z,9.46
2019-02-09T10:47:11.206Z,9.56
2019-02-09T10:48:11.206Z,9.62
2019-02-09T10:49:11.198Z,9.65
2019-02-09T10:50:11.174Z,9.69
2019-02-09T10:51:11.165Z,9.66
2019-02-09T10:52:11.149Z,9.64
2019-02-09T10:53:11.169Z,9.65
2019-02-09T10:54:11.124Z,9.64
2019-02-09T10:55:11.155Z,9.66
2019-02-09T10:56:11.109Z,9.59
2019-02-09T10:57:11.094Z,9.48
2019-02-09T10:58:11.081Z,9.54
2019-02-09T10:59:11.110Z,9.51
2019-02-09T11:00:11.061Z,9.51
2019-02-09T11:01:11.082Z,9.50
2019-02-09T11:02:11.041Z,9.40
2019-02-09T11:03:11.035Z,9.41
2019-02-09T11:04:11.030Z,9.48
2019-02-09T11:05:11.006Z,9.48
2019-02-09T11:06:10.993Z,9.56
2019-02-09T11:07:10.986Z,9.64
2019-02-09T11:08:11.017Z,9.59
2019-02-09T11:09:10.962Z,9.51
2019-02-09T11:10:10.962Z,9.48
2019-02-09T11:11:10.942Z,9.48
2019-02-09T11:12:10.930Z,9.50
2019-02-09T11:13:10.919Z,9.47
2019-02-09T11:14:11.055Z,9.44
2019-02-09T11:15:10.894Z,9.51
2019-02-09T11:16:10.915Z,9.51
2019-02-09T11:17:10.876Z,9.51
2019-02-09T11:18:10.863Z,9.40
2019-02-09T11:19:10.883Z,9.41
2019-02-09T11:20:10.839Z,9.46
2019-02-09T11:21:10.831Z,9.43
2019-02-09T11:22:10.872Z,9.43
2019-02-09T11:23:10.807Z,9.43
2019-02-09T11:24:10.799Z,9.40
2019-02-09T11:25:10.787Z,9.51
2019-02-09T11:26:10.771Z,9.39
2019-02-09T11:27:10.771Z,9.34
2019-02-09T11:28:10.796Z,9.40
2019-02-09T11:29:10.743Z,9.43
2019-02-09T11:30:10.732Z,9.50
2019-02-09T11:31:10.719Z,9.66
2019-02-09T11:32:10.711Z,9.64
2019-02-09T11:33:10.695Z,9.74
2019-02-09T11:34:10.743Z,9.73
2019-02-09T11:35:10.680Z,9.82
2019-02-09T11:36:10.663Z,9.74
2019-02-09T11:37:10.651Z,9.68
2019-02-09T11:38:10.639Z,9.62
2019-02-09T11:39:10.635Z,9.58
2019-02-09T11:40:10.659Z,9.56
2019-02-09T11:41:11.101Z,9.68
2019-02-09T11:42:10.600Z,9.76
2019-02-09T11:43:10.587Z,9.64
2019-02-09T11:44:10.583Z,9.61
2019-02-09T11:45:10.563Z,9.59
2019-02-09T11:46:10.593Z,9.56
2019-02-09T11:47:10.539Z,9.64
2019-02-09T11:48:10.533Z,9.61
2019-02-09T11:49:10.523Z,9.56
2019-02-09T11:50:10.507Z,9.58
2019-02-09T11:51:10.539Z,9.39
2019-02-09T11:52:10.505Z,9.48
2019-02-09T11:53:10.479Z,9.51
2019-02-09T11:54:10.459Z,9.40
2019-02-09T11:55:10.455Z,9.46
2019-02-09T11:56:10.443Z,9.54
2019-02-09T11:57:10.451Z,9.54
2019-02-09T11:58:10.431Z,9.61
2019-02-09T11:59:10.407Z,9.62
2019-02-09T12:00:10.399Z,9.51
2019-02-09T12:01:10.383Z,9.51
2019-02-09T12:02:11.000Z,9.50
2019-02-09T12:03:14.920Z,9.56
2019-02-09T12:04:11.387Z,9.76
2019-02-09T12:05:17.395Z,9.62
2019-02-09T12:06:10.332Z,9.64
2019-02-09T12:07:10.323Z,9.68
2019-02-09T12:08:10.311Z,9.54
2019-02-09T12:09:10.303Z,9.50
2019-02-09T12:10:10.303Z,9.46
2019-02-09T12:11:10.279Z,9.47
2019-02-09T12:12:10.273Z,9.54
2019-02-09T12:13:10.251Z,9.50
2019-02-09T12:14:10.243Z,9.47
2019-02-09T12:15:10.239Z,9.47
2019-02-09T12:16:10.247Z,9.51
2019-02-09T12:17:10.211Z,9.66
2019-02-09T12:18:10.199Z,9.69
2019-02-09T12:19:10.187Z,9.66
2019-02-09T12:20:10.195Z,9.80
2019-02-09T12:21:10.167Z,9.82
2019-02-09T12:22:10.169Z,9.76
2019-02-09T12:23:10.143Z,9.83
2019-02-09T12:24:10.131Z,9.84
2019-02-09T12:25:10.123Z,9.87
2019-02-09T12:26:10.111Z,9.79
2019-02-09T12:27:10.115Z,9.80
2019-02-09T12:28:10.087Z,9.74
2019-02-09T12:29:10.080Z,9.72
2019-02-09T12:30:10.069Z,9.82
2019-02-09T12:31:10.054Z,9.66
2019-02-09T12:32:10.043Z,9.62
2019-02-09T12:33:10.059Z,9.64
2019-02-09T12:34:10.023Z,9.68
2019-02-09T12:35:10.007Z,9.64
2019-02-09T12:36:10.001Z,9.74
2019-02-09T12:37:09.991Z,9.79
2019-02-09T12:38:09.975Z,9.77
2019-02-09T12:39:09.985Z,9.77
2019-02-09T12:40:09.955Z,9.91
2019-02-09T12:41:09.942Z,9.95
2019-02-09T12:42:11.379Z,10.04
2019-02-09T12:43:09.925Z,10.07
2019-02-09T12:44:09.927Z,10.01
2019-02-09T12:45:09.903Z,9.98
2019-02-09T12:46:09.891Z,10.05
2019-02-09T12:47:09.878Z,10.04
2019-02-09T12:48:09.869Z,10.07
2019-02-09T12:49:09.855Z,9.94
2019-02-09T12:50:09.861Z,9.91
2019-02-09T12:51:09.839Z,9.89
2019-02-09T12:52:09.827Z,9.97
2019-02-09T12:53:09.811Z,9.99
2019-02-09T12:54:09.798Z,10.04
2019-02-09T12:55:09.792Z,10.04
2019-02-09T12:56:09.794Z,9.95
2019-02-09T12:57:09.770Z,9.94
2019-02-09T12:58:09.754Z,9.97
2019-02-09T12:59:14.802Z,10.01
2019-02-09T13:00:10.735Z,9.97
2019-02-09T13:01:09.734Z,9.99
2019-02-09T13:02:09.711Z,10.07
2019-02-09T13:03:09.706Z,10.17
2019-02-09T13:04:09.686Z,10.23
2019-02-09T13:05:10.439Z,10.40
2019-02-09T13:06:09.666Z,10.35
2019-02-09T13:07:09.950Z,10.34
2019-02-09T13:08:09.644Z,10.53
2019-02-09T13:09:09.642Z,10.53
2019-02-09T13:11:02.448Z,10.54
2019-02-09T13:12:02.466Z,10.41
2019-02-09T13:13:02.428Z,10.30
2019-02-09T13:14:02.410Z,10.35
2019-02-09T13:15:02.403Z,10.25
2019-02-09T13:16:02.392Z,10.26
2019-02-09T13:17:02.458Z,10.17
2019-02-09T13:18:02.386Z,10.19
2019-02-09T13:19:02.358Z,10.15